createdAt,value
2018-02-16T00:00:52.717Z,1001.84
2018-02-16T00:01:58.733Z,1001.79
2018-02-16T00:03:04.271Z,1001.80
2018-02-16T00:04:11.334Z,1001.75
2018-02-16T00:05:16.348Z,1001.75
2018-02-16T00:06:22.426Z,1001.70
2018-02-16T00:07:28.414Z,1001.78
2018-02-16T00:08:34.430Z,1001.78
2018-02-16T00:09:40.484Z,1001.91
2018-02-16T00:10:46.517Z,1001.96
2018-02-16T00:11:53.071Z,1002.00
2018-02-16T00:12:58.573Z,1002.00
2018-02-16T00:14:05.096Z,1002.10
2018-02-16T00:15:10.651Z,1002.15
2018-02-16T00:16:16.700Z,1002.20
2018-02-16T00:17:23.197Z,1002.23
2018-02-16T00:18:28.738Z,1002.24
2018-02-16T00:19:35.295Z,1002.21
2018-02-16T00:20:41.312Z,1002.25
2018-02-16T00:21:46.845Z,1002.18
2018-02-16T00:22:52.874Z,1002.21
2018-02-16T00:23:59.401Z,1002.20
2018-02-16T00:25:05.444Z,1002.21
2018-02-16T00:26:11.487Z,1002.23
2018-02-16T00:27:17.498Z,1002.23
2018-02-16T00:28:23.033Z,1002.18
2018-02-16T00:29:29.666Z,1002.15
2018-02-16T00:30:35.151Z,1002.11
2018-02-16T00:31:41.637Z,1002.05
2018-02-16T00:32:47.679Z,1001.94
2018-02-16T00:33:53.217Z,1001.94
2018-02-16T00:34:59.743Z,1002.06
2018-02-16T00:36:05.321Z,1002.12
2018-02-16T00:37:11.832Z,1002.13
2018-02-16T00:38:17.856Z,1002.16
2018-02-16T00:39:23.881Z,1002.22
2018-02-16T00:40:29.435Z,1002.25
2018-02-16T00:41:35.989Z,1002.27
2018-02-16T00:42:42.032Z,1002.28
2018-02-16T00:43:47.564Z,1002.26
2018-02-16T00:44:54.168Z,1002.30
2018-02-16T00:45:59.708Z,1002.34
2018-02-16T00:47:05.664Z,1002.36
2018-02-16T00:48:12.272Z,1002.35
2018-02-16T00:49:17.782Z,1002.29
2018-02-16T00:50:23.761Z,1002.34
2018-02-16T00:51:29.831Z,1002.36
2018-02-16T00:52:35.848Z,1002.37
2018-02-16T00:53:42.398Z,1002.34
2018-02-16T00:55:54.465Z,1002.34
2018-02-16T00:57:00.019Z,1002.35
2018-02-16T00:58:06.059Z,1002.30
2018-02-16T00:59:12.553Z,1002.29
2018-02-16T01:00:18.577Z,1002.34
2018-02-16T01:01:24.163Z,1002.30
2018-02-16T01:02:30.663Z,1002.34
2018-02-16T01:03:36.200Z,1002.27
2018-02-16T01:04:42.228Z,1002.26
2018-02-16T01:05:48.768Z,1002.21
2018-02-16T01:06:54.293Z,1002.22
2018-02-16T01:08:00.335Z,1002.20
2018-02-16T01:09:06.378Z,1002.25
2018-02-16T01:10:13.167Z,1002.30
2018-02-16T01:11:18.444Z,1002.32
2018-02-16T01:12:24.478Z,1002.36
2018-02-16T01:13:30.481Z,1002.43
2018-02-16T01:14:36.514Z,1002.42
2018-02-16T01:15:43.044Z,1002.40
2018-02-16T01:16:48.602Z,1002.44
2018-02-16T01:17:55.178Z,1002.46
2018-02-16T01:19:00.648Z,1002.53
2018-02-16T01:20:06.655Z,1002.53
2018-02-16T01:21:12.705Z,1002.56
2018-02-16T01:22:18.749Z,1002.58
2018-02-16T01:23:24.759Z,1002.60
2018-02-16T01:24:30.775Z,1002.67
2018-02-16T01:25:36.872Z,1002.69
2018-02-16T01:26:43.382Z,1002.74
2018-02-16T01:27:48.904Z,1002.76
2018-02-16T01:28:54.958Z,1002.78
2018-02-16T01:30:00.932Z,1002.83
2018-02-16T01:31:07.964Z,1002.83
2018-02-16T01:32:13.037Z,1002.85
2018-02-16T01:33:19.041Z,1002.86
2018-02-16T01:34:25.575Z,1002.79
2018-02-16T01:35:31.103Z,1002.79
2018-02-16T01:36:37.162Z,1002.76
2018-02-16T01:37:43.697Z,1002.77
2018-02-16T01:38:49.215Z,1002.80
2018-02-16T01:39:55.278Z,1002.82
2018-02-16T01:41:01.765Z,1002.80
2018-02-16T01:42:07.797Z,1002.80
2018-02-16T01:43:13.860Z,1002.79
2018-02-16T01:44:19.376Z,1002.78
2018-02-16T01:45:25.393Z,1002.75
2018-02-16T01:46:31.927Z,1002.80
2018-02-16T01:47:37.986Z,1002.88
2018-02-16T01:48:43.505Z,1002.83
2018-02-16T01:49:50.100Z,1002.86
2018-02-16T01:50:55.561Z,1002.85
2018-02-16T01:52:01.572Z,1002.78
2018-02-16T01:53:07.641Z,1002.72
2018-02-16T01:54:14.167Z,1002.69
2018-02-16T01:55:20.156Z,1002.77
2018-02-16T01:56:25.690Z,1002.87
2018-02-16T01:57:32.235Z,1002.94
2018-02-16T01:58:38.294Z,1003.03
2018-02-16T01:59:43.796Z,1003.08
2018-02-16T02:00:49.832Z,1003.07
2018-02-16T02:01:55.830Z,1003.15
2018-02-16T02:03:02.364Z,1003.16
2018-02-16T02:04:08.441Z,1003.19
2018-02-16T02:05:13.931Z,1003.25
2018-02-16T02:06:19.961Z,1003.28
2018-02-16T02:07:25.977Z,1003.25
2018-02-16T02:08:32.061Z,1003.29
2018-02-16T02:09:38.541Z,1003.31
2018-02-16T02:10:44.560Z,1003.35
2018-02-16T02:11:50.180Z,1003.36
2018-02-16T02:13:04.862Z,1003.41
2018-02-16T02:14:10.937Z,1003.41
2018-02-16T02:15:16.467Z,1003.41
2018-02-16T02:16:22.469Z,1003.42
2018-02-16T02:17:28.534Z,1003.38
2018-02-16T02:18:35.052Z,1003.41
2018-02-16T02:19:40.596Z,1003.40
2018-02-16T02:20:46.581Z,1003.36
2018-02-16T02:21:52.598Z,1003.34
2018-02-16T02:22:58.636Z,1003.33
2018-02-16T02:24:04.682Z,1003.34
2018-02-16T02:25:10.728Z,1003.36
2018-02-16T02:26:17.519Z,1003.32
2018-02-16T02:27:23.237Z,1003.33
2018-02-16T02:28:28.762Z,1003.29
2018-02-16T02:29:34.820Z,1003.32
2018-02-16T02:30:41.348Z,1003.33
2018-02-16T02:31:46.864Z,1003.37
2018-02-16T02:32:53.388Z,1003.38
2018-02-16T02:33:58.948Z,1003.38
2018-02-16T02:35:04.975Z,1003.38
2018-02-16T02:36:10.966Z,1003.41
2018-02-16T02:37:16.938Z,1003.39
2018-02-16T02:38:22.968Z,1003.42
2018-02-16T02:39:29.008Z,1003.41
2018-02-16T02:40:35.524Z,1003.45
2018-02-16T02:41:41.554Z,1003.46
2018-02-16T02:42:47.559Z,1003.50
2018-02-16T02:43:53.594Z,1003.50
2018-02-16T02:44:59.097Z,1003.49
2018-02-16T02:46:05.159Z,1003.50
2018-02-16T02:47:11.669Z,1003.54
2018-02-16T02:48:17.163Z,1003.57
2018-02-16T02:49:23.696Z,1003.59
2018-02-16T02:50:29.231Z,1003.69
2018-02-16T02:51:35.237Z,1003.73
2018-02-16T02:52:41.264Z,1003.77
2018-02-16T02:53:47.262Z,1003.77
2018-02-16T02:54:54.814Z,1003.77
2018-02-16T02:55:59.833Z,1003.74
2018-02-16T02:57:05.337Z,1003.66
2018-02-16T02:58:11.394Z,1003.63
2018-02-16T02:59:17.420Z,1003.59
2018-02-16T03:00:23.408Z,1003.55
2018-02-16T03:01:29.491Z,1003.51
2018-02-16T03:02:35.459Z,1003.51
2018-02-16T03:03:41.465Z,1003.48
2018-02-16T03:04:47.550Z,1003.52
2018-02-16T03:05:53.510Z,1003.54
2018-02-16T03:06:59.560Z,1003.57
2018-02-16T03:08:06.203Z,1003.62
2018-02-16T03:09:12.158Z,1003.68
2018-02-16T03:10:17.596Z,1003.66
2018-02-16T03:11:23.645Z,1003.66
2018-02-16T03:12:29.647Z,1003.69
2018-02-16T03:13:35.647Z,1003.69
2018-02-16T03:14:41.689Z,1003.69
2018-02-16T03:15:47.683Z,1003.70
2018-02-16T03:16:53.762Z,1003.67
2018-02-16T03:17:59.722Z,1003.65
2018-02-16T03:19:05.770Z,1003.68
2018-02-16T03:20:11.816Z,1003.76
2018-02-16T03:21:18.304Z,1003.79
2018-02-16T03:22:23.837Z,1003.79
2018-02-16T03:23:30.359Z,1003.83
2018-02-16T03:24:35.866Z,1003.83
2018-02-16T03:25:41.877Z,1003.89
2018-02-16T03:26:48.435Z,1003.81
2018-02-16T03:27:54.920Z,1003.79
2018-02-16T03:28:59.954Z,1003.86
2018-02-16T03:30:05.987Z,1003.89
2018-02-16T03:31:12.018Z,1003.98
2018-02-16T03:32:18.063Z,1003.99
2018-02-16T03:33:24.527Z,1003.98
2018-02-16T03:34:30.062Z,1004.04
2018-02-16T03:35:36.162Z,1004.13
2018-02-16T03:36:42.203Z,1004.11
2018-02-16T03:37:48.614Z,1004.11
2018-02-16T03:38:54.229Z,1004.01
2018-02-16T03:40:00.151Z,1003.99
2018-02-16T03:41:06.193Z,1003.99
2018-02-16T03:42:12.234Z,1004.02
2018-02-16T03:43:18.468Z,1004.00
2018-02-16T03:44:24.275Z,1004.05
2018-02-16T03:45:30.272Z,1004.12
2018-02-16T03:46:36.811Z,1004.15
2018-02-16T03:47:42.823Z,1004.18
2018-02-16T03:48:48.803Z,1004.23
2018-02-16T03:49:54.846Z,1004.31
2018-02-16T03:51:00.861Z,1004.41
2018-02-16T03:52:06.935Z,1004.46
2018-02-16T03:53:12.418Z,1004.49
2018-02-16T03:54:18.429Z,1004.53
2018-02-16T03:55:24.476Z,1004.57
2018-02-16T03:56:30.522Z,1004.55
2018-02-16T03:57:36.505Z,1004.51
2018-02-16T03:58:43.064Z,1004.54
2018-02-16T03:59:49.027Z,1004.56
2018-02-16T04:00:55.068Z,1004.62
2018-02-16T04:02:00.600Z,1004.67
2018-02-16T04:03:07.104Z,1004.70
2018-02-16T04:04:12.636Z,1004.74
2018-02-16T04:05:18.648Z,1004.80
2018-02-16T04:06:24.672Z,1004.75
2018-02-16T04:07:30.677Z,1004.76
2018-02-16T04:08:37.269Z,1004.74
2018-02-16T04:09:42.708Z,1004.79
2018-02-16T04:10:49.290Z,1004.77
2018-02-16T04:11:54.780Z,1004.78
2018-02-16T04:13:00.774Z,1004.76
2018-02-16T04:14:07.282Z,1004.75
2018-02-16T04:15:12.810Z,1004.75
2018-02-16T04:16:19.344Z,1004.74
2018-02-16T04:17:24.862Z,1004.72
2018-02-16T04:18:30.903Z,1004.73
2018-02-16T04:19:36.883Z,1004.76
2018-02-16T04:20:42.940Z,1004.79
2018-02-16T04:21:49.440Z,1004.82
2018-02-16T04:22:55.476Z,1004.80
2018-02-16T04:24:00.961Z,1004.79
2018-02-16T04:25:07.476Z,1004.81
2018-02-16T04:26:12.999Z,1004.81
2018-02-16T04:27:19.023Z,1004.82
2018-02-16T04:28:25.547Z,1004.83
2018-02-16T04:29:31.559Z,1004.83
2018-02-16T04:30:37.531Z,1004.82
2018-02-16T04:31:43.075Z,1004.83
2018-02-16T04:32:49.138Z,1004.85
2018-02-16T04:33:55.086Z,1004.85
2018-02-16T04:35:01.114Z,1004.86
2018-02-16T04:36:07.612Z,1004.89
2018-02-16T04:37:13.637Z,1004.92
2018-02-16T04:38:19.129Z,1004.87
2018-02-16T04:39:25.133Z,1004.87
2018-02-16T04:40:31.152Z,1004.89
2018-02-16T04:41:37.233Z,1004.89
2018-02-16T04:42:43.187Z,1004.89
2018-02-16T04:43:49.199Z,1004.92
2018-02-16T04:44:55.689Z,1004.91
2018-02-16T04:46:01.704Z,1004.96
2018-02-16T04:47:07.250Z,1004.99
2018-02-16T04:48:13.227Z,1004.99
2018-02-16T04:49:19.246Z,1005.04
2018-02-16T04:50:25.261Z,1005.02
2018-02-16T04:51:31.295Z,1005.08
2018-02-16T04:52:37.276Z,1005.15
2018-02-16T04:53:43.271Z,1005.16
2018-02-16T04:54:49.277Z,1005.20
2018-02-16T04:55:55.293Z,1005.22
2018-02-16T04:57:01.356Z,1005.22
2018-02-16T04:58:07.834Z,1005.23
2018-02-16T04:59:13.312Z,1005.28
2018-02-16T05:00:19.827Z,1005.30
2018-02-16T05:01:25.356Z,1005.29
2018-02-16T05:02:31.369Z,1005.31
2018-02-16T05:03:37.356Z,1005.29
2018-02-16T05:04:43.373Z,1005.33
2018-02-16T05:05:49.378Z,1005.32
2018-02-16T05:06:55.397Z,1005.31
2018-02-16T05:08:01.891Z,1005.35
2018-02-16T05:09:07.894Z,1005.40
2018-02-16T05:10:13.734Z,1005.36
2018-02-16T05:11:19.910Z,1005.34
2018-02-16T05:12:25.946Z,1005.39
2018-02-16T05:13:31.937Z,1005.41
2018-02-16T05:14:37.456Z,1005.42
2018-02-16T05:15:43.972Z,1005.46
2018-02-16T05:16:50.017Z,1005.46
2018-02-16T05:17:55.990Z,1005.47
2018-02-16T05:19:01.996Z,1005.53
2018-02-16T05:20:08.025Z,1005.53
2018-02-16T05:21:13.533Z,1005.53
2018-02-16T05:22:19.575Z,1005.54
2018-02-16T05:23:25.560Z,1005.57
2018-02-16T05:24:32.148Z,1005.58
2018-02-16T05:25:37.588Z,1005.55
2018-02-16T05:26:44.610Z,1005.61
2018-02-16T05:27:49.605Z,1005.64
2018-02-16T05:28:55.636Z,1005.73
2018-02-16T05:30:01.642Z,1005.69
2018-02-16T05:31:07.675Z,1005.70
2018-02-16T05:32:13.725Z,1005.71
2018-02-16T05:33:19.694Z,1005.75
2018-02-16T05:34:26.192Z,1005.78
2018-02-16T05:35:31.718Z,1005.80
2018-02-16T05:36:37.769Z,1005.79
2018-02-16T05:37:43.788Z,1005.82
2018-02-16T05:38:49.771Z,1005.80
2018-02-16T05:39:55.777Z,1005.79
2018-02-16T05:41:02.275Z,1005.76
2018-02-16T05:42:07.842Z,1005.79
2018-02-16T05:43:13.854Z,1005.76
2018-02-16T05:44:20.331Z,1005.83
2018-02-16T05:45:25.904Z,1005.82
2018-02-16T05:46:33.387Z,1005.86
2018-02-16T05:47:38.403Z,1005.83
2018-02-16T05:48:44.407Z,1005.81
2018-02-16T05:49:49.989Z,1005.83
2018-02-16T05:50:55.964Z,1005.83
2018-02-16T05:52:02.472Z,1005.81
2018-02-16T05:53:08.439Z,1005.79
2018-02-16T05:54:14.005Z,1005.77
2018-02-16T05:55:19.989Z,1005.77
2018-02-16T05:56:26.306Z,1005.84
2018-02-16T05:57:32.033Z,1005.81
2018-02-16T05:58:38.032Z,1005.80
2018-02-16T05:59:44.560Z,1005.83
2018-02-16T06:00:50.158Z,1005.89
2018-02-16T06:01:56.187Z,1005.92
2018-02-16T06:03:02.181Z,1005.94
2018-02-16T06:04:08.108Z,1006.01
2018-02-16T06:05:14.639Z,1006.05
2018-02-16T06:06:20.136Z,1006.08
2018-02-16T06:07:26.178Z,1006.11
2018-02-16T06:08:32.674Z,1006.14
2018-02-16T06:09:38.223Z,1006.19
2018-02-16T06:10:44.301Z,1006.22
2018-02-16T06:11:50.834Z,1006.26
2018-02-16T06:12:56.526Z,1006.26
2018-02-16T06:14:02.293Z,1006.27
2018-02-16T06:15:08.831Z,1006.25
2018-02-16T06:17:20.830Z,1006.18
2018-02-16T06:18:26.356Z,1006.22
2018-02-16T06:19:32.370Z,1006.22
2018-02-16T06:20:38.847Z,1006.22
2018-02-16T06:21:44.932Z,1006.21
2018-02-16T06:22:50.406Z,1006.18
2018-02-16T06:23:56.893Z,1006.16
2018-02-16T06:25:02.493Z,1006.20
2018-02-16T06:26:08.443Z,1006.18
2018-02-16T06:27:14.977Z,1006.19
2018-02-16T06:28:20.479Z,1006.28
2018-02-16T06:29:26.502Z,1006.27
2018-02-16T06:30:32.508Z,1006.32
2018-02-16T06:31:38.601Z,1006.36
2018-02-16T06:32:44.575Z,1006.34
2018-02-16T06:33:51.108Z,1006.38
2018-02-16T06:34:56.578Z,1006.35
2018-02-16T06:36:02.793Z,1006.39
2018-02-16T06:37:08.671Z,1006.45
2018-02-16T06:38:15.495Z,1006.41
2018-02-16T06:39:20.638Z,1006.45
2018-02-16T06:40:26.718Z,1006.48
2018-02-16T06:41:32.767Z,1006.52
2018-02-16T06:42:38.759Z,1006.53
2018-02-16T06:43:45.272Z,1006.54
2018-02-16T06:44:51.742Z,1006.53
2018-02-16T06:45:57.272Z,1006.55
2018-02-16T06:47:03.294Z,1006.58
2018-02-16T06:48:08.813Z,1006.59
2018-02-16T06:49:14.890Z,1006.59
2018-02-16T06:50:20.829Z,1006.56
2018-02-16T06:51:26.852Z,1006.56
2018-02-16T06:52:33.730Z,1006.57
2018-02-16T06:53:38.973Z,1006.62
2018-02-16T06:54:45.566Z,1006.67
2018-02-16T06:55:51.464Z,1006.74
2018-02-16T06:56:57.464Z,1006.78
2018-02-16T06:58:03.000Z,1006.82
2018-02-16T06:59:08.992Z,1006.86
2018-02-16T07:00:15.606Z,1006.85
2018-02-16T07:01:21.026Z,1006.87
2018-02-16T07:02:27.077Z,1006.87
2018-02-16T07:03:33.609Z,1006.85
2018-02-16T07:04:39.674Z,1006.87
2018-02-16T07:05:45.174Z,1006.86
2018-02-16T07:06:51.148Z,1006.89
2018-02-16T07:07:57.211Z,1006.90
2018-02-16T07:09:03.202Z,1006.89
2018-02-16T07:10:09.220Z,1006.86
2018-02-16T07:14:35.716Z,1006.93
2018-02-16T07:18:00.222Z,1006.94
2018-02-16T07:19:05.802Z,1006.96
2018-02-16T07:21:20.338Z,1006.94
2018-02-16T07:23:29.916Z,1006.89
2018-02-16T07:24:58.930Z,1006.91
2018-02-16T07:26:10.136Z,1006.86
2018-02-16T07:27:13.703Z,1006.88
2018-02-16T07:28:20.172Z,1006.90
2018-02-16T07:29:25.520Z,1006.92
2018-02-16T07:30:31.773Z,1006.94
2018-02-16T07:31:36.876Z,1006.91
2018-02-16T07:34:55.475Z,1006.93
2018-02-16T07:36:02.581Z,1006.94
2018-02-16T07:39:19.885Z,1007.02
2018-02-16T07:42:56.319Z,1007.14
2018-02-16T07:46:14.455Z,1007.15
2018-02-16T07:47:19.578Z,1007.18
2018-02-16T07:48:24.565Z,1007.19
2018-02-16T07:50:02.024Z,1007.21
2018-02-16T07:52:27.921Z,1007.22
2018-02-16T07:55:50.879Z,1007.28
2018-02-16T07:57:04.062Z,1007.29
2018-02-16T07:58:10.801Z,1007.34
2018-02-16T07:59:37.816Z,1007.35
2018-02-16T08:00:47.680Z,1007.35
2018-02-16T08:03:00.286Z,1007.41
2018-02-16T08:05:11.817Z,1007.44
2018-02-16T08:09:35.952Z,1007.55
2018-02-16T08:10:42.913Z,1007.59
2018-02-16T08:11:49.939Z,1007.60
2018-02-16T08:12:55.155Z,1007.61
2018-02-16T08:15:07.328Z,1007.60
2018-02-16T08:16:12.598Z,1007.61
2018-02-16T08:17:18.388Z,1007.61
2018-02-16T08:18:24.416Z,1007.63
2018-02-16T08:19:30.691Z,1007.64
2018-02-16T08:21:43.736Z,1007.69
2018-02-16T08:25:00.818Z,1007.80
2018-02-16T08:26:06.376Z,1007.84
2018-02-16T08:27:12.930Z,1007.84
2018-02-16T08:28:19.035Z,1007.86
2018-02-16T08:29:25.087Z,1007.86
2018-02-16T08:30:31.185Z,1007.93
2018-02-16T08:31:37.225Z,1007.96
2018-02-16T08:32:43.313Z,1007.92
2018-02-16T08:33:49.453Z,1007.93
2018-02-16T08:34:55.385Z,1007.91
2018-02-16T08:36:01.547Z,1007.95
2018-02-16T08:37:07.615Z,1007.98
2018-02-16T08:38:13.612Z,1007.97
2018-02-16T08:39:19.688Z,1007.96
2018-02-16T08:40:25.841Z,1007.93
2018-02-16T08:42:37.947Z,1008.00
2018-02-16T08:43:43.976Z,1008.03
2018-02-16T08:44:50.043Z,1008.04
2018-02-16T08:45:56.153Z,1007.98
2018-02-16T08:47:02.207Z,1008.06
2018-02-16T08:48:08.345Z,1008.12
2018-02-16T08:49:14.390Z,1008.15
2018-02-16T08:50:20.481Z,1008.15
2018-02-16T08:51:26.543Z,1008.13
2018-02-16T08:52:32.701Z,1008.16
2018-02-16T08:53:38.799Z,1008.20
2018-02-16T08:54:44.890Z,1008.22
2018-02-16T08:55:50.890Z,1008.30
2018-02-16T08:56:56.975Z,1008.30
2018-02-16T08:58:03.122Z,1008.30
2018-02-16T08:59:09.172Z,1008.30
2018-02-16T09:00:15.352Z,1008.30
2018-02-16T09:01:21.333Z,1008.32
2018-02-16T09:02:27.434Z,1008.35
2018-02-16T09:03:33.539Z,1008.40
2018-02-16T09:04:39.650Z,1008.39
2018-02-16T09:05:45.719Z,1008.41
2018-02-16T09:06:51.834Z,1008.43
2018-02-16T09:07:57.593Z,1008.46
2018-02-16T09:09:04.079Z,1008.48
2018-02-16T09:10:11.098Z,1008.49
2018-02-16T09:11:16.259Z,1008.55
2018-02-16T09:12:22.313Z,1008.54
2018-02-16T09:13:29.422Z,1008.52
2018-02-16T09:14:34.502Z,1008.50
2018-02-16T09:15:40.590Z,1008.42
2018-02-16T09:16:46.805Z,1008.44
2018-02-16T09:17:52.865Z,1008.49
2018-02-16T09:18:58.450Z,1008.54
2018-02-16T09:20:05.040Z,1008.51
2018-02-16T09:21:12.193Z,1008.51
2018-02-16T09:22:17.248Z,1008.48
2018-02-16T09:23:24.405Z,1008.51
2018-02-16T09:24:29.482Z,1008.54
2018-02-16T09:25:35.608Z,1008.52
2018-02-16T09:26:41.696Z,1008.55
2018-02-16T09:27:47.831Z,1008.55
2018-02-16T09:28:53.981Z,1008.57
2018-02-16T09:30:00.075Z,1008.56
2018-02-16T09:31:06.202Z,1008.57
2018-02-16T09:32:12.293Z,1008.55
2018-02-16T09:33:18.558Z,1008.62
2018-02-16T09:34:24.542Z,1008.66
2018-02-16T09:35:30.667Z,1008.64
2018-02-16T09:36:36.779Z,1008.68
2018-02-16T09:37:42.882Z,1008.72
2018-02-16T09:38:49.023Z,1008.72
2018-02-16T09:39:55.177Z,1008.71
2018-02-16T09:41:01.269Z,1008.67
2018-02-16T09:42:07.416Z,1008.74
2018-02-16T09:43:13.548Z,1008.72
2018-02-16T09:44:19.638Z,1008.74
2018-02-16T09:45:26.757Z,1008.77
2018-02-16T09:46:31.884Z,1008.77
2018-02-16T09:47:37.997Z,1008.81
2018-02-16T09:48:44.173Z,1008.81
2018-02-16T09:49:50.236Z,1008.86
2018-02-16T09:50:57.376Z,1008.85
2018-02-16T09:52:02.530Z,1008.87
2018-02-16T09:53:08.584Z,1008.89
2018-02-16T09:54:14.723Z,1008.87
2018-02-16T09:55:20.847Z,1008.89
2018-02-16T09:56:26.939Z,1008.88
2018-02-16T09:57:33.084Z,1008.89
2018-02-16T09:58:39.206Z,1008.90
2018-02-16T09:59:45.298Z,1008.88
2018-02-16T10:00:51.957Z,1008.87
2018-02-16T10:01:59.962Z,1008.92
2018-02-16T10:03:06.108Z,1008.90
2018-02-16T10:04:09.792Z,1008.88
2018-02-16T10:05:15.894Z,1008.84
2018-02-16T10:06:22.996Z,1008.84
2018-02-16T10:07:28.176Z,1008.85
2018-02-16T10:08:34.299Z,1008.91
2018-02-16T10:09:40.405Z,1008.95
2018-02-16T10:10:46.504Z,1008.96
2018-02-16T10:11:52.653Z,1008.96
2018-02-16T10:12:58.743Z,1008.99
2018-02-16T10:14:05.876Z,1009.04
2018-02-16T10:15:11.950Z,1009.07
2018-02-16T10:16:17.153Z,1009.07
2018-02-16T10:17:24.252Z,1009.05
2018-02-16T10:18:29.367Z,1009.01
2018-02-16T10:19:35.497Z,1009.02
2018-02-16T10:20:41.677Z,1009.04
2018-02-16T10:21:47.775Z,1009.03
2018-02-16T10:22:54.057Z,1009.10
2018-02-16T10:23:59.586Z,1009.13
2018-02-16T10:25:06.245Z,1009.18
2018-02-16T10:26:12.378Z,1009.20
2018-02-16T10:27:18.674Z,1009.19
2018-02-16T10:28:24.683Z,1009.21
2018-02-16T10:29:30.865Z,1009.22
2018-02-16T10:30:37.028Z,1009.27
2018-02-16T10:31:43.120Z,1009.24
2018-02-16T10:32:49.268Z,1009.24
2018-02-16T10:33:55.553Z,1009.25
2018-02-16T10:35:01.599Z,1009.24
2018-02-16T10:36:07.757Z,1009.21
2018-02-16T10:37:13.878Z,1009.27
2018-02-16T10:38:21.081Z,1009.28
2018-02-16T10:39:26.208Z,1009.31
2018-02-16T10:40:32.344Z,1009.35
2018-02-16T10:41:38.492Z,1009.39
2018-02-16T10:42:44.640Z,1009.38
2018-02-16T10:43:50.777Z,1009.40
2018-02-16T10:44:56.905Z,1009.36
2018-02-16T10:46:03.047Z,1009.39
2018-02-16T10:47:09.212Z,1009.38
2018-02-16T10:48:15.405Z,1009.34
2018-02-16T10:49:21.514Z,1009.40
2018-02-16T10:50:27.640Z,1009.34
2018-02-16T10:51:33.829Z,1009.28
2018-02-16T10:52:39.992Z,1009.28
2018-02-16T10:53:46.204Z,1009.28
2018-02-16T10:54:52.337Z,1009.30
2018-02-16T10:55:58.507Z,1009.29
2018-02-16T10:57:04.673Z,1009.35
2018-02-16T10:58:10.842Z,1009.33
2018-02-16T10:59:17.036Z,1009.31
2018-02-16T11:00:23.205Z,1009.31
2018-02-16T11:02:35.729Z,1009.21
2018-02-16T11:03:41.835Z,1009.20
2018-02-16T11:04:47.989Z,1009.28
2018-02-16T11:05:54.158Z,1009.29
2018-02-16T11:07:00.365Z,1009.23
2018-02-16T11:08:06.592Z,1009.18
2018-02-16T11:09:12.278Z,1009.19
2018-02-16T11:10:18.952Z,1009.21
2018-02-16T11:11:25.183Z,1009.21
2018-02-16T11:12:31.472Z,1009.21
2018-02-16T11:13:37.602Z,1009.17
2018-02-16T11:14:44.326Z,1009.15
2018-02-16T11:16:56.161Z,1009.16
2018-02-16T11:18:01.926Z,1009.15
2018-02-16T11:19:09.604Z,1009.18
2018-02-16T11:20:14.249Z,1009.17
2018-02-16T11:21:20.978Z,1009.16
2018-02-16T11:22:27.133Z,1009.13
2018-02-16T11:23:33.316Z,1009.14
2018-02-16T11:24:39.605Z,1009.14
2018-02-16T11:25:45.716Z,1009.15
2018-02-16T11:27:58.196Z,1009.20
2018-02-16T11:29:03.865Z,1009.23
2018-02-16T11:30:10.526Z,1009.19
2018-02-16T11:31:16.759Z,1009.17
2018-02-16T11:32:23.001Z,1009.21
2018-02-16T11:33:29.138Z,1009.19
2018-02-16T11:34:36.402Z,1009.15
2018-02-16T11:35:41.636Z,1009.19
2018-02-16T11:36:47.824Z,1009.15
2018-02-16T11:37:54.993Z,1009.14
2018-02-16T11:39:00.260Z,1009.13
2018-02-16T11:40:06.436Z,1009.13
2018-02-16T11:41:12.719Z,1009.10
2018-02-16T11:42:18.924Z,1009.13
2018-02-16T11:43:25.159Z,1009.16
2018-02-16T11:44:31.490Z,1009.19
2018-02-16T11:45:37.663Z,1009.21
2018-02-16T11:46:43.839Z,1009.19
2018-02-16T11:47:50.096Z,1009.20
2018-02-16T11:48:56.458Z,1009.21
2018-02-16T11:50:03.189Z,1009.23
2018-02-16T11:51:08.771Z,1009.21
2018-02-16T11:52:15.056Z,1009.21
2018-02-16T11:53:21.415Z,1009.21
2018-02-16T11:54:27.679Z,1009.20
2018-02-16T11:55:33.828Z,1009.17
2018-02-16T11:56:40.066Z,1009.19
2018-02-16T11:57:46.380Z,1009.18
2018-02-16T11:58:52.617Z,1009.15
2018-02-16T11:59:58.874Z,1009.11
2018-02-16T12:01:05.176Z,1009.08
2018-02-16T12:02:11.372Z,1009.04
2018-02-16T12:03:17.698Z,1009.10
2018-02-16T12:04:24.266Z,1009.09
2018-02-16T12:05:30.305Z,1009.10
2018-02-16T12:06:36.446Z,1009.06
2018-02-16T12:07:42.707Z,1009.04
2018-02-16T12:08:48.959Z,1009.08
2018-02-16T12:09:56.237Z,1009.06
2018-02-16T12:11:01.599Z,1009.10
2018-02-16T12:12:07.782Z,1009.08
2018-02-16T12:13:14.129Z,1009.10
2018-02-16T12:14:21.400Z,1009.13
2018-02-16T12:15:26.614Z,1009.14
2018-02-16T12:16:32.653Z,1009.11
2018-02-16T12:17:39.200Z,1009.08
2018-02-16T12:18:45.567Z,1009.12
2018-02-16T12:19:51.860Z,1009.13
2018-02-16T12:20:58.140Z,1009.19
2018-02-16T12:23:10.609Z,1009.15
2018-02-16T12:24:17.886Z,1009.14
2018-02-16T12:25:23.196Z,1009.18
2018-02-16T12:26:29.894Z,1009.14
2018-02-16T12:27:36.665Z,1009.17
2018-02-16T12:28:41.979Z,1009.19
2018-02-16T12:32:00.246Z,1009.18
2018-02-16T12:33:06.473Z,1009.19
2018-02-16T12:34:13.280Z,1009.21
2018-02-16T12:35:19.979Z,1009.21
2018-02-16T12:37:32.105Z,1009.10
2018-02-16T12:38:37.825Z,1009.07
2018-02-16T12:39:44.590Z,1009.09
2018-02-16T12:40:50.844Z,1009.10
2018-02-16T12:41:57.256Z,1009.03
2018-02-16T12:43:04.015Z,1009.01
2018-02-16T12:44:09.799Z,1009.04
2018-02-16T12:45:16.083Z,1009.09
2018-02-16T12:46:22.335Z,1009.01
2018-02-16T12:47:28.911Z,1009.04
2018-02-16T12:48:35.932Z,1008.99
2018-02-16T12:49:41.229Z,1009.02
2018-02-16T12:50:47.619Z,1009.06
2018-02-16T12:51:53.784Z,1009.07
2018-02-16T12:53:00.675Z,1009.04
2018-02-16T12:54:06.763Z,1009.05
2018-02-16T12:55:13.644Z,1009.03
2018-02-16T12:56:18.914Z,1009.03
2018-02-16T12:57:25.571Z,1009.05
2018-02-16T12:58:31.418Z,1009.01
2018-02-16T13:03:37.973Z,1009.02
2018-02-16T13:04:44.262Z,1008.98
2018-02-16T13:05:50.565Z,1008.94
2018-02-16T13:06:56.855Z,1008.93
2018-02-16T13:08:04.175Z,1008.94
2018-02-16T13:09:09.375Z,1008.97
2018-02-16T13:10:16.498Z,1009.02
2018-02-16T13:11:21.926Z,1009.03
2018-02-16T13:12:28.242Z,1008.98
2018-02-16T13:13:34.424Z,1009.00
2018-02-16T13:14:40.673Z,1008.99
2018-02-16T13:15:47.057Z,1008.95
2018-02-16T13:16:53.223Z,1009.00
2018-02-16T13:17:59.490Z,1008.96
2018-02-16T13:19:05.706Z,1009.00
2018-02-16T13:20:12.082Z,1008.95
2018-02-16T13:21:18.261Z,1008.97
2018-02-16T13:22:24.471Z,1009.00
2018-02-16T13:23:30.700Z,1009.05
2018-02-16T13:24:37.050Z,1009.05
2018-02-16T13:25:43.247Z,1009.01
2018-02-16T13:26:49.439Z,1009.02
2018-02-16T13:27:55.665Z,1009.08
2018-02-16T13:29:01.932Z,1009.07
2018-02-16T13:30:08.174Z,1009.07
2018-02-16T13:31:14.419Z,1009.06
2018-02-16T13:32:20.638Z,1009.08
2018-02-16T13:33:26.849Z,1009.08
2018-02-16T13:34:33.158Z,1009.08
2018-02-16T13:35:39.397Z,1009.06
2018-02-16T13:36:45.813Z,1009.04
2018-02-16T13:37:51.851Z,1009.02
2018-02-16T13:38:58.116Z,1009.04
2018-02-16T13:40:04.341Z,1009.02
2018-02-16T13:42:16.745Z,1009.08
2018-02-16T13:43:22.488Z,1009.06
2018-02-16T13:44:29.242Z,1009.05
2018-02-16T13:45:36.408Z,1009.10
2018-02-16T13:46:41.699Z,1009.11
2018-02-16T13:47:47.916Z,1009.04
2018-02-16T13:50:00.512Z,1009.08
2018-02-16T13:51:06.299Z,1009.02
2018-02-16T13:52:12.795Z,1009.01
2018-02-16T13:53:18.997Z,1009.03
2018-02-16T13:54:25.190Z,1009.02
2018-02-16T13:55:31.464Z,1009.04
2018-02-16T13:56:37.655Z,1009.00
2018-02-16T13:57:43.912Z,1008.92
2018-02-16T13:58:49.998Z,1009.04
2018-02-16T13:59:56.235Z,1009.02
2018-02-16T14:01:02.930Z,1009.04
2018-02-16T14:02:08.680Z,1009.07
2018-02-16T14:03:14.830Z,1009.06
2018-02-16T14:04:21.016Z,1009.07
2018-02-16T14:05:27.209Z,1009.07
2018-02-16T14:06:33.400Z,1009.06
2018-02-16T14:07:39.618Z,1009.06
2018-02-16T14:08:45.879Z,1009.06